sensor_id;sensor_type;location;lat;lon;timestamp;P1;durP1;ratioP1;P2;durP2;ratioP2
44214;SDS011;29884;47.450;19.124;2023-03-19T00:01:56;13.52;;;8.82;;
44214;SDS011;29884;47.450;19.124;2023-03-19T00:04:25;16.08;;;9.48;;
44214;SDS011;29884;47.450;19.124;2023-03-19T00:06:52;14.65;;;9.43;;
44214;SDS011;29884;47.450;19.124;2023-03-19T00:09:18;15.98;;;9.35;;
44214;SDS011;29884;47.450;19.124;2023-03-19T00:11:45;15.70;;;9.43;;
44214;SDS011;29884;47.450;19.124;2023-03-19T00:14:12;16.25;;;9.32;;
44214;SDS011;29884;47.450;19.124;2023-03-19T00:16:37;17.55;;;9.27;;
44214;SDS011;29884;47.450;19.124;2023-03-19T00:19:04;17.88;;;9.02;;
44214;SDS011;29884;47.450;19.124;2023-03-19T00:21:29;13.52;;;8.50;;
44214;SDS011;29884;47.450;19.124;2023-03-19T00:23:56;13.82;;;8.38;;
44214;SDS011;29884;47.450;19.124;2023-03-19T00:26:26;15.82;;;8.88;;
44214;SDS011;29884;47.450;19.124;2023-03-19T00:28:53;13.20;;;8.57;;
44214;SDS011;29884;47.450;19.124;2023-03-19T00:31:20;14.25;;;8.68;;
44214;SDS011;29884;47.450;19.124;2023-03-19T00:33:45;14.35;;;8.27;;
44214;SDS011;29884;47.450;19.124;2023-03-19T00:36:12;14.05;;;8.15;;
44214;SDS011;29884;47.450;19.124;2023-03-19T00:38:40;12.88;;;8.63;;
44214;SDS011;29884;47.450;19.124;2023-03-19T00:41:06;13.00;;;8.27;;
44214;SDS011;29884;47.450;19.124;2023-03-19T00:43:32;14.43;;;8.45;;
44214;SDS011;29884;47.450;19.124;2023-03-19T00:45:58;15.80;;;9.15;;
44214;SDS011;29884;47.450;19.124;2023-03-19T00:48:24;13.75;;;9.38;;
44214;SDS011;29884;47.450;19.124;2023-03-19T00:50:51;13.75;;;9.40;;
44214;SDS011;29884;47.450;19.124;2023-03-19T00:53:16;15.57;;;9.50;;
44214;SDS011;29884;47.450;19.124;2023-03-19T00:55:42;13.35;;;9.27;;
44214;SDS011;29884;47.450;19.124;2023-03-19T00:58:08;13.68;;;9.25;;
44214;SDS011;29884;47.450;19.124;2023-03-19T01:00:35;15.93;;;8.98;;
44214;SDS011;29884;47.450;19.124;2023-03-19T01:03:02;14.52;;;9.38;;
44214;SDS011;29884;47.450;19.124;2023-03-19T01:05:28;13.48;;;9.00;;
44214;SDS011;29884;47.450;19.124;2023-03-19T01:07:54;15.20;;;8.77;;
44214;SDS011;29884;47.450;19.124;2023-03-19T01:10:21;14.05;;;9.10;;
44214;SDS011;29884;47.450;19.124;2023-03-19T01:12:47;17.75;;;9.88;;
44214;SDS011;29884;47.450;19.124;2023-03-19T01:15:13;12.55;;;8.50;;
44214;SDS011;29884;47.450;19.124;2023-03-19T01:17:40;16.40;;;9.60;;
44214;SDS011;29884;47.450;19.124;2023-03-19T01:20:07;19.27;;;9.38;;
44214;SDS011;29884;47.450;19.124;2023-03-19T01:22:37;13.50;;;8.38;;
44214;SDS011;29884;47.450;19.124;2023-03-19T01:25:05;12.65;;;9.10;;
44214;SDS011;29884;47.450;19.124;2023-03-19T01:27:32;12.82;;;8.13;;
44214;SDS011;29884;47.450;19.124;2023-03-19T01:29:57;13.18;;;8.35;;
44214;SDS011;29884;47.450;19.124;2023-03-19T01:32:23;13.70;;;8.88;;
44214;SDS011;29884;47.450;19.124;2023-03-19T01:34:49;13.48;;;9.00;;
44214;SDS011;29884;47.450;19.124;2023-03-19T01:37:15;13.55;;;8.80;;
44214;SDS011;29884;47.450;19.124;2023-03-19T01:39:40;15.32;;;8.55;;
44214;SDS011;29884;47.450;19.124;2023-03-19T01:42:06;13.68;;;8.40;;
44214;SDS011;29884;47.450;19.124;2023-03-19T01:44:33;12.00;;;8.15;;
44214;SDS011;29884;47.450;19.124;2023-03-19T01:47:02;15.63;;;8.95;;
44214;SDS011;29884;47.450;19.124;2023-03-19T01:49:34;15.40;;;9.07;;
44214;SDS011;29884;47.450;19.124;2023-03-19T01:52:02;14.15;;;8.20;;
44214;SDS011;29884;47.450;19.124;2023-03-19T01:54:29;14.23;;;8.48;;
44214;SDS011;29884;47.450;19.124;2023-03-19T01:57:01;13.98;;;8.50;;
44214;SDS011;29884;47.450;19.124;2023-03-19T01:59:38;16.02;;;9.15;;
44214;SDS011;29884;47.450;19.124;2023-03-19T02:04:59;13.30;;;8.93;;
44214;SDS011;29884;47.450;19.124;2023-03-19T02:07:29;14.85;;;8.75;;
44214;SDS011;29884;47.450;19.124;2023-03-19T02:09:58;14.20;;;9.02;;
44214;SDS011;29884;47.450;19.124;2023-03-19T02:12:25;12.30;;;8.80;;
44214;SDS011;29884;47.450;19.124;2023-03-19T02:14:51;15.98;;;8.93;;
44214;SDS011;29884;47.450;19.124;2023-03-19T02:17:17;14.05;;;8.18;;
44214;SDS011;29884;47.450;19.124;2023-03-19T02:22:12;15.15;;;8.48;;
44214;SDS011;29884;47.450;19.124;2023-03-19T02:24:44;12.63;;;7.97;;
44214;SDS011;29884;47.450;19.124;2023-03-19T02:27:22;14.23;;;8.13;;
44214;SDS011;29884;47.450;19.124;2023-03-19T02:29:48;16.50;;;8.10;;
44214;SDS011;29884;47.450;19.124;2023-03-19T02:32:14;11.25;;;8.07;;
44214;SDS011;29884;47.450;19.124;2023-03-19T02:34:41;12.07;;;7.53;;
44214;SDS011;29884;47.450;19.124;2023-03-19T02:37:09;13.60;;;8.07;;
44214;SDS011;29884;47.450;19.124;2023-03-19T02:42:18;13.52;;;7.97;;
44214;SDS011;29884;47.450;19.124;2023-03-19T02:44:46;12.23;;;7.53;;
44214;SDS011;29884;47.450;19.124;2023-03-19T02:47:12;12.93;;;7.40;;
44214;SDS011;29884;47.450;19.124;2023-03-19T02:49:38;12.60;;;7.07;;
44214;SDS011;29884;47.450;19.124;2023-03-19T02:52:04;13.52;;;7.18;;
44214;SDS011;29884;47.450;19.124;2023-03-19T02:54:30;11.02;;;6.90;;
44214;SDS011;29884;47.450;19.124;2023-03-19T02:56:56;9.93;;;6.43;;
44214;SDS011;29884;47.450;19.124;2023-03-19T02:59:21;10.48;;;6.53;;
44214;SDS011;29884;47.450;19.124;2023-03-19T03:01:47;10.30;;;6.38;;
44214;SDS011;29884;47.450;19.124;2023-03-19T03:04:13;10.65;;;6.70;;
44214;SDS011;29884;47.450;19.124;2023-03-19T03:06:40;10.07;;;6.25;;
44214;SDS011;29884;47.450;19.124;2023-03-19T03:09:07;10.38;;;6.55;;
44214;SDS011;29884;47.450;19.124;2023-03-19T03:11:34;13.13;;;6.75;;
44214;SDS011;29884;47.450;19.124;2023-03-19T03:13:59;9.15;;;6.07;;
44214;SDS011;29884;47.450;19.124;2023-03-19T03:16:25;9.25;;;5.93;;
44214;SDS011;29884;47.450;19.124;2023-03-19T03:18:51;11.10;;;6.40;;
44214;SDS011;29884;47.450;19.124;2023-03-19T03:21:18;10.13;;;5.60;;
44214;SDS011;29884;47.450;19.124;2023-03-19T03:23:45;10.63;;;6.03;;
44214;SDS011;29884;47.450;19.124;2023-03-19T03:26:12;11.70;;;5.57;;
44214;SDS011;29884;47.450;19.124;2023-03-19T03:28:38;8.93;;;5.55;;
44214;SDS011;29884;47.450;19.124;2023-03-19T03:31:04;9.80;;;5.80;;
44214;SDS011;29884;47.450;19.124;2023-03-19T03:33:30;7.50;;;5.20;;
44214;SDS011;29884;47.450;19.124;2023-03-19T03:35:57;11.05;;;5.97;;
44214;SDS011;29884;47.450;19.124;2023-03-19T03:38:23;9.25;;;5.28;;
44214;SDS011;29884;47.450;19.124;2023-03-19T03:40:49;10.38;;;5.82;;
44214;SDS011;29884;47.450;19.124;2023-03-19T03:43:16;8.65;;;5.25;;
44214;SDS011;29884;47.450;19.124;2023-03-19T03:45:44;10.55;;;5.60;;
44214;SDS011;29884;47.450;19.124;2023-03-19T03:48:10;9.30;;;5.47;;
44214;SDS011;29884;47.450;19.124;2023-03-19T03:50:37;9.65;;;5.65;;
44214;SDS011;29884;47.450;19.124;2023-03-19T03:53:02;7.70;;;5.10;;
44214;SDS011;29884;47.450;19.124;2023-03-19T03:55:29;8.00;;;5.07;;
44214;SDS011;29884;47.450;19.124;2023-03-19T03:57:55;9.63;;;5.43;;
44214;SDS011;29884;47.450;19.124;2023-03-19T04:00:21;8.23;;;5.05;;
44214;SDS011;29884;47.450;19.124;2023-03-19T04:02:48;9.30;;;5.10;;
44214;SDS011;29884;47.450;19.124;2023-03-19T04:05:14;9.32;;;5.72;;
44214;SDS011;29884;47.450;19.124;2023-03-19T04:07:40;9.57;;;5.85;;
44214;SDS011;29884;47.450;19.124;2023-03-19T04:10:07;9.73;;;5.22;;
44214;SDS011;29884;47.450;19.124;2023-03-19T04:12:35;8.90;;;5.45;;
44214;SDS011;29884;47.450;19.124;2023-03-19T04:15:04;8.95;;;5.32;;
44214;SDS011;29884;47.450;19.124;2023-03-19T04:17:32;8.35;;;5.25;;
44214;SDS011;29884;47.450;19.124;2023-03-19T04:19:57;7.25;;;4.93;;
44214;SDS011;29884;47.450;19.124;2023-03-19T04:22:23;9.55;;;5.68;;
44214;SDS011;29884;47.450;19.124;2023-03-19T04:24:49;9.55;;;5.68;;
44214;SDS011;29884;47.450;19.124;2023-03-19T04:27:15;9.02;;;5.47;;
44214;SDS011;29884;47.450;19.124;2023-03-19T04:29:41;8.30;;;5.93;;
44214;SDS011;29884;47.450;19.124;2023-03-19T04:32:06;8.85;;;6.10;;
44214;SDS011;29884;47.450;19.124;2023-03-19T04:34:32;9.65;;;5.90;;
44214;SDS011;29884;47.450;19.124;2023-03-19T04:36:59;9.65;;;5.97;;
44214;SDS011;29884;47.450;19.124;2023-03-19T04:39:24;10.25;;;5.90;;
44214;SDS011;29884;47.450;19.124;2023-03-19T04:41:51;9.88;;;5.95;;
44214;SDS011;29884;47.450;19.124;2023-03-19T04:44:16;7.43;;;5.30;;
44214;SDS011;29884;47.450;19.124;2023-03-19T04:46:42;7.97;;;4.75;;
44214;SDS011;29884;47.450;19.124;2023-03-19T04:49:09;6.90;;;4.38;;
44214;SDS011;29884;47.450;19.124;2023-03-19T04:51:35;7.07;;;4.32;;
44214;SDS011;29884;47.450;19.124;2023-03-19T04:54:01;8.63;;;5.28;;
44214;SDS011;29884;47.450;19.124;2023-03-19T04:56:28;8.05;;;4.60;;
44214;SDS011;29884;47.450;19.124;2023-03-19T04:58:53;7.32;;;4.38;;
44214;SDS011;29884;47.450;19.124;2023-03-19T05:01:19;9.30;;;5.07;;
44214;SDS011;29884;47.450;19.124;2023-03-19T05:03:45;10.18;;;4.68;;
44214;SDS011;29884;47.450;19.124;2023-03-19T05:06:11;6.50;;;4.43;;
44214;SDS011;29884;47.450;19.124;2023-03-19T05:08:36;8.80;;;4.07;;
44214;SDS011;29884;47.450;19.124;2023-03-19T05:11:02;8.90;;;4.55;;
44214;SDS011;29884;47.450;19.124;2023-03-19T05:13:28;7.70;;;3.92;;
44214;SDS011;29884;47.450;19.124;2023-03-19T05:15:54;6.18;;;4.32;;
44214;SDS011;29884;47.450;19.124;2023-03-19T05:18:20;9.75;;;4.50;;
44214;SDS011;29884;47.450;19.124;2023-03-19T05:20:46;6.00;;;3.88;;
44214;SDS011;29884;47.450;19.124;2023-03-19T05:23:12;5.30;;;4.10;;
44214;SDS011;29884;47.450;19.124;2023-03-19T05:25:38;7.95;;;4.25;;
44214;SDS011;29884;47.450;19.124;2023-03-19T05:28:04;7.38;;;4.20;;
44214;SDS011;29884;47.450;19.124;2023-03-19T05:30:31;9.30;;;4.82;;
44214;SDS011;29884;47.450;19.124;2023-03-19T05:32:58;8.07;;;4.32;;
44214;SDS011;29884;47.450;19.124;2023-03-19T05:35:25;7.57;;;4.32;;
44214;SDS011;29884;47.450;19.124;2023-03-19T05:37:52;6.07;;;4.20;;
44214;SDS011;29884;47.450;19.124;2023-03-19T05:40:18;8.68;;;4.35;;
44214;SDS011;29884;47.450;19.124;2023-03-19T05:42:44;7.55;;;4.40;;
44214;SDS011;29884;47.450;19.124;2023-03-19T05:45:10;6.75;;;4.13;;
44214;SDS011;29884;47.450;19.124;2023-03-19T05:47:36;8.00;;;4.18;;
44214;SDS011;29884;47.450;19.124;2023-03-19T05:50:03;11.10;;;6.25;;
44214;SDS011;29884;47.450;19.124;2023-03-19T05:52:30;7.13;;;4.30;;
44214;SDS011;29884;47.450;19.124;2023-03-19T05:54:56;8.23;;;4.32;;
44214;SDS011;29884;47.450;19.124;2023-03-19T05:57:21;9.18;;;4.35;;
44214;SDS011;29884;47.450;19.124;2023-03-19T05:59:47;6.15;;;3.88;;
44214;SDS011;29884;47.450;19.124;2023-03-19T06:02:13;5.70;;;3.55;;
44214;SDS011;29884;47.450;19.124;2023-03-19T06:04:39;6.97;;;4.13;;
44214;SDS011;29884;47.450;19.124;2023-03-19T06:07:05;7.55;;;4.32;;
44214;SDS011;29884;47.450;19.124;2023-03-19T06:09:31;10.25;;;4.05;;
44214;SDS011;29884;47.450;19.124;2023-03-19T06:11:57;7.22;;;3.95;;
44214;SDS011;29884;47.450;19.124;2023-03-19T06:14:23;6.10;;;4.10;;
44214;SDS011;29884;47.450;19.124;2023-03-19T06:16:49;8.93;;;4.20;;
44214;SDS011;29884;47.450;19.124;2023-03-19T06:19:15;7.25;;;3.20;;
44214;SDS011;29884;47.450;19.124;2023-03-19T06:21:41;8.65;;;3.42;;
44214;SDS011;29884;47.450;19.124;2023-03-19T06:24:07;6.32;;;3.47;;
44214;SDS011;29884;47.450;19.124;2023-03-19T06:26:33;6.03;;;3.55;;
44214;SDS011;29884;47.450;19.124;2023-03-19T06:28:58;5.88;;;3.28;;
44214;SDS011;29884;47.450;19.124;2023-03-19T06:31:24;6.45;;;3.42;;
44214;SDS011;29884;47.450;19.124;2023-03-19T06:33:51;4.40;;;3.25;;
44214;SDS011;29884;47.450;19.124;2023-03-19T06:36:18;5.97;;;2.88;;
44214;SDS011;29884;47.450;19.124;2023-03-19T06:38:43;4.15;;;2.67;;
44214;SDS011;29884;47.450;19.124;2023-03-19T06:41:09;6.78;;;2.90;;
44214;SDS011;29884;47.450;19.124;2023-03-19T06:43:35;6.93;;;3.55;;
44214;SDS011;29884;47.450;19.124;2023-03-19T06:46:04;4.93;;;2.92;;
44214;SDS011;29884;47.450;19.124;2023-03-19T06:48:31;4.03;;;3.13;;
44214;SDS011;29884;47.450;19.124;2023-03-19T06:50:57;5.78;;;2.28;;
44214;SDS011;29884;47.450;19.124;2023-03-19T06:53:23;5.25;;;2.80;;
44214;SDS011;29884;47.450;19.124;2023-03-19T06:55:49;4.50;;;3.08;;
44214;SDS011;29884;47.450;19.124;2023-03-19T06:58:15;4.00;;;2.80;;
44214;SDS011;29884;47.450;19.124;2023-03-19T07:00:41;5.57;;;2.70;;
44214;SDS011;29884;47.450;19.124;2023-03-19T07:03:07;6.40;;;2.63;;
44214;SDS011;29884;47.450;19.124;2023-03-19T07:05:34;4.38;;;3.05;;
44214;SDS011;29884;47.450;19.124;2023-03-19T07:08:00;4.40;;;2.45;;
44214;SDS011;29884;47.450;19.124;2023-03-19T07:10:26;4.10;;;2.60;;
44214;SDS011;29884;47.450;19.124;2023-03-19T07:12:52;4.93;;;2.85;;
44214;SDS011;29884;47.450;19.124;2023-03-19T07:15:17;4.50;;;2.28;;
44214;SDS011;29884;47.450;19.124;2023-03-19T07:17:45;6.95;;;2.70;;
44214;SDS011;29884;47.450;19.124;2023-03-19T07:20:12;4.03;;;2.45;;
44214;SDS011;29884;47.450;19.124;2023-03-19T07:22:38;4.13;;;2.22;;
44214;SDS011;29884;47.450;19.124;2023-03-19T07:25:04;3.53;;;2.05;;
44214;SDS011;29884;47.450;19.124;2023-03-19T07:27:31;4.35;;;1.90;;
44214;SDS011;29884;47.450;19.124;2023-03-19T07:29:57;4.65;;;2.20;;
44214;SDS011;29884;47.450;19.124;2023-03-19T07:32:23;4.43;;;2.00;;
44214;SDS011;29884;47.450;19.124;2023-03-19T07:34:48;5.57;;;2.38;;
44214;SDS011;29884;47.450;19.124;2023-03-19T07:37:14;4.15;;;2.40;;
44214;SDS011;29884;47.450;19.124;2023-03-19T07:39:40;5.22;;;2.67;;
44214;SDS011;29884;47.450;19.124;2023-03-19T07:42:06;4.63;;;2.17;;
44214;SDS011;29884;47.450;19.124;2023-03-19T07:44:31;4.28;;;2.13;;
44214;SDS011;29884;47.450;19.124;2023-03-19T07:46:57;3.33;;;2.03;;
44214;SDS011;29884;47.450;19.124;2023-03-19T07:49:23;3.28;;;1.95;;
44214;SDS011;29884;47.450;19.124;2023-03-19T07:51:49;3.70;;;2.00;;
44214;SDS011;29884;47.450;19.124;2023-03-19T07:54:15;3.75;;;1.92;;
44214;SDS011;29884;47.450;19.124;2023-03-19T07:56:42;4.43;;;2.00;;
44214;SDS011;29884;47.450;19.124;2023-03-19T07:59:08;4.97;;;2.33;;
44214;SDS011;29884;47.450;19.124;2023-03-19T08:01:35;3.95;;;1.95;;
44214;SDS011;29884;47.450;19.124;2023-03-19T08:04:00;3.05;;;1.88;;
44214;SDS011;29884;47.450;19.124;2023-03-19T08:06:26;3.53;;;1.98;;
44214;SDS011;29884;47.450;19.124;2023-03-19T08:08:52;3.20;;;1.83;;
44214;SDS011;29884;47.450;19.124;2023-03-19T08:11:18;2.50;;;1.88;;
44214;SDS011;29884;47.450;19.124;2023-03-19T08:13:44;2.83;;;1.90;;
44214;SDS011;29884;47.450;19.124;2023-03-19T08:16:09;3.22;;;2.10;;
44214;SDS011;29884;47.450;19.124;2023-03-19T08:18:36;3.13;;;2.03;;
44214;SDS011;29884;47.450;19.124;2023-03-19T08:21:01;3.60;;;2.20;;
44214;SDS011;29884;47.450;19.124;2023-03-19T08:23:27;3.85;;;1.77;;
44214;SDS011;29884;47.450;19.124;2023-03-19T08:25:54;2.78;;;1.73;;
44214;SDS011;29884;47.450;19.124;2023-03-19T08:28:21;4.85;;;2.00;;
44214;SDS011;29884;47.450;19.124;2023-03-19T08:30:47;3.38;;;1.90;;
44214;SDS011;29884;47.450;19.124;2023-03-19T08:33:13;3.03;;;2.10;;
44214;SDS011;29884;47.450;19.124;2023-03-19T08:35:39;3.38;;;1.80;;
44214;SDS011;29884;47.450;19.124;2023-03-19T08:38:04;5.20;;;2.13;;
44214;SDS011;29884;47.450;19.124;2023-03-19T08:40:31;5.13;;;2.33;;
44214;SDS011;29884;47.450;19.124;2023-03-19T08:42:57;6.07;;;2.53;;
44214;SDS011;29884;47.450;19.124;2023-03-19T08:45:22;4.18;;;2.13;;
44214;SDS011;29884;47.450;19.124;2023-03-19T08:47:48;3.88;;;2.33;;
44214;SDS011;29884;47.450;19.124;2023-03-19T08:50:15;4.28;;;2.47;;
44214;SDS011;29884;47.450;19.124;2023-03-19T08:52:41;3.63;;;2.30;;
44214;SDS011;29884;47.450;19.124;2023-03-19T08:55:07;3.45;;;1.95;;
44214;SDS011;29884;47.450;19.124;2023-03-19T08:57:33;3.33;;;2.13;;
44214;SDS011;29884;47.450;19.124;2023-03-19T09:00:00;5.60;;;3.00;;
44214;SDS011;29884;47.450;19.124;2023-03-19T09:02:26;3.40;;;2.15;;
44214;SDS011;29884;47.450;19.124;2023-03-19T09:04:52;4.68;;;2.30;;
44214;SDS011;29884;47.450;19.124;2023-03-19T09:07:18;3.15;;;2.00;;
44214;SDS011;29884;47.450;19.124;2023-03-19T09:09:44;5.55;;;2.10;;
44214;SDS011;29884;47.450;19.124;2023-03-19T09:12:11;4.25;;;1.95;;
44214;SDS011;29884;47.450;19.124;2023-03-19T09:14:39;4.55;;;1.90;;
44214;SDS011;29884;47.450;19.124;2023-03-19T09:17:05;6.05;;;2.33;;
44214;SDS011;29884;47.450;19.124;2023-03-19T09:19:31;5.25;;;2.00;;
44214;SDS011;29884;47.450;19.124;2023-03-19T09:21:58;4.95;;;1.75;;
44214;SDS011;29884;47.450;19.124;2023-03-19T09:24:23;3.42;;;1.88;;
44214;SDS011;29884;47.450;19.124;2023-03-19T09:26:50;3.40;;;2.08;;
44214;SDS011;29884;47.450;19.124;2023-03-19T09:29:16;5.00;;;2.28;;
44214;SDS011;29884;47.450;19.124;2023-03-19T09:31:42;3.88;;;2.30;;
44214;SDS011;29884;47.450;19.124;2023-03-19T09:34:08;3.58;;;1.73;;
44214;SDS011;29884;47.450;19.124;2023-03-19T09:36:34;3.53;;;2.28;;
44214;SDS011;29884;47.450;19.124;2023-03-19T09:39:00;5.15;;;2.40;;
44214;SDS011;29884;47.450;19.124;2023-03-19T09:41:34;4.20;;;2.10;;
44214;SDS011;29884;47.450;19.124;2023-03-19T09:44:31;5.35;;;2.40;;
44214;SDS011;29884;47.450;19.124;2023-03-19T09:49:43;2.72;;;1.90;;
44214;SDS011;29884;47.450;19.124;2023-03-19T09:57:54;2.95;;;1.65;;
44214;SDS011;29884;47.450;19.124;2023-03-19T10:00:22;26.23;;;2.92;;
44214;SDS011;29884;47.450;19.124;2023-03-19T10:08:17;2.97;;;2.25;;
44214;SDS011;29884;47.450;19.124;2023-03-19T10:16:21;5.38;;;2.13;;
44214;SDS011;29884;47.450;19.124;2023-03-19T10:18:49;3.65;;;1.90;;
44214;SDS011;29884;47.450;19.124;2023-03-19T10:21:28;3.50;;;1.63;;
44214;SDS011;29884;47.450;19.124;2023-03-19T10:24:03;3.47;;;2.05;;
44214;SDS011;29884;47.450;19.124;2023-03-19T10:26:31;3.72;;;1.80;;
44214;SDS011;29884;47.450;19.124;2023-03-19T10:29:09;3.45;;;2.08;;
44214;SDS011;29884;47.450;19.124;2023-03-19T10:31:48;4.95;;;2.30;;
44214;SDS011;29884;47.450;19.124;2023-03-19T10:34:36;3.08;;;2.15;;
44214;SDS011;29884;47.450;19.124;2023-03-19T10:37:12;4.18;;;2.20;;
44214;SDS011;29884;47.450;19.124;2023-03-19T10:39:44;4.22;;;2.20;;
44214;SDS011;29884;47.450;19.124;2023-03-19T10:42:19;2.90;;;2.00;;
44214;SDS011;29884;47.450;19.124;2023-03-19T10:47:50;3.35;;;1.88;;
44214;SDS011;29884;47.450;19.124;2023-03-19T10:50:20;5.10;;;2.08;;
44214;SDS011;29884;47.450;19.124;2023-03-19T10:52:57;3.92;;;1.98;;
44214;SDS011;29884;47.450;19.124;2023-03-19T10:55:45;3.40;;;2.03;;
44214;SDS011;29884;47.450;19.124;2023-03-19T10:58:18;3.33;;;2.25;;
44214;SDS011;29884;47.450;19.124;2023-03-19T11:00:55;5.13;;;1.98;;
44214;SDS011;29884;47.450;19.124;2023-03-19T11:03:30;2.92;;;2.00;;
44214;SDS011;29884;47.450;19.124;2023-03-19T11:08:49;2.80;;;1.63;;
44214;SDS011;29884;47.450;19.124;2023-03-19T11:11:25;2.63;;;1.67;;
44214;SDS011;29884;47.450;19.124;2023-03-19T11:14:14;2.30;;;1.60;;
44214;SDS011;29884;47.450;19.124;2023-03-19T11:19:26;6.25;;;1.63;;
44214;SDS011;29884;47.450;19.124;2023-03-19T11:24:41;3.45;;;1.90;;
44214;SDS011;29884;47.450;19.124;2023-03-19T11:27:12;3.28;;;1.70;;
44214;SDS011;29884;47.450;19.124;2023-03-19T11:29:42;2.95;;;1.60;;
44214;SDS011;29884;47.450;19.124;2023-03-19T11:55:37;4.50;;;1.80;;
44214;SDS011;29884;47.450;19.124;2023-03-19T12:00:53;2.80;;;1.70;;
44214;SDS011;29884;47.450;19.124;2023-03-19T12:03:32;2.85;;;1.48;;
44214;SDS011;29884;47.450;19.124;2023-03-19T12:09:00;3.80;;;1.67;;
44214;SDS011;29884;47.450;19.124;2023-03-19T12:14:17;2.55;;;1.40;;
44214;SDS011;29884;47.450;19.124;2023-03-19T12:22:23;2.45;;;1.48;;
44214;SDS011;29884;47.450;19.124;2023-03-19T12:30:41;3.28;;;1.50;;
44214;SDS011;29884;47.450;19.124;2023-03-19T12:36:02;3.67;;;1.48;;
44214;SDS011;29884;47.450;19.124;2023-03-19T12:41:29;5.20;;;1.52;;
44214;SDS011;29884;47.450;19.124;2023-03-19T12:44:01;3.08;;;1.30;;
44214;SDS011;29884;47.450;19.124;2023-03-19T12:51:57;3.30;;;1.80;;
44214;SDS011;29884;47.450;19.124;2023-03-19T12:54:32;3.17;;;1.70;;
44214;SDS011;29884;47.450;19.124;2023-03-19T13:05:38;2.28;;;1.50;;
44214;SDS011;29884;47.450;19.124;2023-03-19T13:11:07;2.50;;;1.40;;
44214;SDS011;29884;47.450;19.124;2023-03-19T13:13:54;2.45;;;1.10;;
44214;SDS011;29884;47.450;19.124;2023-03-19T13:19:47;2.95;;;1.45;;
44214;SDS011;29884;47.450;19.124;2023-03-19T13:22:29;3.30;;;1.67;;
44214;SDS011;29884;47.450;19.124;2023-03-19T13:24:58;2.80;;;1.50;;
44214;SDS011;29884;47.450;19.124;2023-03-19T13:27:26;6.18;;;1.90;;
44214;SDS011;29884;47.450;19.124;2023-03-19T13:35:12;4.18;;;1.50;;
44214;SDS011;29884;47.450;19.124;2023-03-19T13:38:02;3.05;;;1.60;;
44214;SDS011;29884;47.450;19.124;2023-03-19T13:40:54;3.22;;;1.58;;
44214;SDS011;29884;47.450;19.124;2023-03-19T13:50:54;2.72;;;1.50;;
44214;SDS011;29884;47.450;19.124;2023-03-19T13:55:58;2.45;;;1.60;;
44214;SDS011;29884;47.450;19.124;2023-03-19T13:58:28;2.75;;;1.77;;
44214;SDS011;29884;47.450;19.124;2023-03-19T14:03:51;3.10;;;1.77;;
44214;SDS011;29884;47.450;19.124;2023-03-19T14:06:40;3.90;;;1.70;;
44214;SDS011;29884;47.450;19.124;2023-03-19T14:11:54;2.30;;;1.30;;
44214;SDS011;29884;47.450;19.124;2023-03-19T14:14:32;2.83;;;1.20;;
44214;SDS011;29884;47.450;19.124;2023-03-19T14:16:58;2.65;;;1.60;;
44214;SDS011;29884;47.450;19.124;2023-03-19T14:19:24;3.45;;;1.70;;
44214;SDS011;29884;47.450;19.124;2023-03-19T14:27:00;3.58;;;1.60;;
44214;SDS011;29884;47.450;19.124;2023-03-19T14:29:34;5.13;;;1.60;;
44214;SDS011;29884;47.450;19.124;2023-03-19T14:32:04;3.58;;;1.88;;
44214;SDS011;29884;47.450;19.124;2023-03-19T14:37:03;2.60;;;1.67;;
44214;SDS011;29884;47.450;19.124;2023-03-19T14:39:39;4.50;;;2.00;;
44214;SDS011;29884;47.450;19.124;2023-03-19T14:42:12;3.47;;;2.03;;
44214;SDS011;29884;47.450;19.124;2023-03-19T14:47:34;2.40;;;1.55;;
44214;SDS011;29884;47.450;19.124;2023-03-19T14:55:34;2.95;;;1.80;;
44214;SDS011;29884;47.450;19.124;2023-03-19T14:58:01;3.83;;;1.70;;
44214;SDS011;29884;47.450;19.124;2023-03-19T15:00:28;5.97;;;1.50;;
44214;SDS011;29884;47.450;19.124;2023-03-19T15:03:52;2.92;;;1.70;;
44214;SDS011;29884;47.450;19.124;2023-03-19T15:06:04;3.42;;;1.88;;
44214;SDS011;29884;47.450;19.124;2023-03-19T15:08:32;16.38;;;3.80;;
44214;SDS011;29884;47.450;19.124;2023-03-19T15:19:09;3.05;;;1.77;;
44214;SDS011;29884;47.450;19.124;2023-03-19T15:21:38;4.05;;;2.05;;
44214;SDS011;29884;47.450;19.124;2023-03-19T15:24:04;4.63;;;2.03;;
44214;SDS011;29884;47.450;19.124;2023-03-19T15:26:37;5.53;;;2.30;;
44214;SDS011;29884;47.450;19.124;2023-03-19T15:29:03;4.22;;;2.90;;
44214;SDS011;29884;47.450;19.124;2023-03-19T15:31:45;2.75;;;2.20;;
44214;SDS011;29884;47.450;19.124;2023-03-19T15:36:54;3.17;;;2.10;;
44214;SDS011;29884;47.450;19.124;2023-03-19T15:39:22;4.50;;;2.17;;
44214;SDS011;29884;47.450;19.124;2023-03-19T15:41:51;4.18;;;2.10;;
44214;SDS011;29884;47.450;19.124;2023-03-19T15:44:24;4.10;;;2.13;;
44214;SDS011;29884;47.450;19.124;2023-03-19T15:46:57;4.15;;;1.85;;
44214;SDS011;29884;47.450;19.124;2023-03-19T15:49:28;4.32;;;1.90;;
44214;SDS011;29884;47.450;19.124;2023-03-19T15:52:01;10.37;;;2.80;;
44214;SDS011;29884;47.450;19.124;2023-03-19T15:54:31;3.55;;;2.13;;
44214;SDS011;29884;47.450;19.124;2023-03-19T15:56:57;3.58;;;2.03;;
44214;SDS011;29884;47.450;19.124;2023-03-19T15:59:24;3.45;;;2.00;;
44214;SDS011;29884;47.450;19.124;2023-03-19T16:02:01;4.32;;;2.08;;
44214;SDS011;29884;47.450;19.124;2023-03-19T16:04:28;4.10;;;2.20;;
44214;SDS011;29884;47.450;19.124;2023-03-19T16:06:57;3.28;;;1.90;;
44214;SDS011;29884;47.450;19.124;2023-03-19T16:09:25;2.75;;;1.90;;
44214;SDS011;29884;47.450;19.124;2023-03-19T16:11:57;3.47;;;2.08;;
44214;SDS011;29884;47.450;19.124;2023-03-19T16:14:24;2.72;;;2.05;;
44214;SDS011;29884;47.450;19.124;2023-03-19T16:16:59;4.82;;;2.00;;
44214;SDS011;29884;47.450;19.124;2023-03-19T16:19:36;2.72;;;1.75;;
44214;SDS011;29884;47.450;19.124;2023-03-19T16:22:15;3.72;;;2.00;;
44214;SDS011;29884;47.450;19.124;2023-03-19T16:24:45;3.30;;;1.73;;
44214;SDS011;29884;47.450;19.124;2023-03-19T16:27:13;5.32;;;2.00;;
44214;SDS011;29884;47.450;19.124;2023-03-19T16:29:44;3.40;;;1.60;;
44214;SDS011;29884;47.450;19.124;2023-03-19T16:47:45;5.65;;;1.90;;
44214;SDS011;29884;47.450;19.124;2023-03-19T16:50:11;4.53;;;2.28;;
44214;SDS011;29884;47.450;19.124;2023-03-19T16:52:38;4.43;;;2.50;;
44214;SDS011;29884;47.450;19.124;2023-03-19T16:55:13;6.50;;;2.30;;
44214;SDS011;29884;47.450;19.124;2023-03-19T16:57:40;4.70;;;3.20;;
44214;SDS011;29884;47.450;19.124;2023-03-19T17:00:09;6.90;;;3.08;;
44214;SDS011;29884;47.450;19.124;2023-03-19T17:02:38;8.75;;;3.88;;
44214;SDS011;29884;47.450;19.124;2023-03-19T17:05:13;16.17;;;4.22;;
44214;SDS011;29884;47.450;19.124;2023-03-19T17:07:39;14.43;;;6.05;;
44214;SDS011;29884;47.450;19.124;2023-03-19T17:10:06;11.15;;;4.28;;
44214;SDS011;29884;47.450;19.124;2023-03-19T17:12:44;7.22;;;3.47;;
44214;SDS011;29884;47.450;19.124;2023-03-19T17:15:24;10.38;;;3.88;;
44214;SDS011;29884;47.450;19.124;2023-03-19T17:17:55;8.50;;;4.28;;
44214;SDS011;29884;47.450;19.124;2023-03-19T17:20:26;9.55;;;4.35;;
44214;SDS011;29884;47.450;19.124;2023-03-19T17:23:08;7.55;;;3.72;;
44214;SDS011;29884;47.450;19.124;2023-03-19T17:25:35;12.80;;;4.22;;
44214;SDS011;29884;47.450;19.124;2023-03-19T17:28:01;11.25;;;4.63;;
44214;SDS011;29884;47.450;19.124;2023-03-19T17:30:27;12.30;;;4.60;;